createdAt,value
2023-08-17T00:01:04.314Z,16.73
2023-08-17T00:03:30.820Z,16.72
2023-08-17T00:05:57.279Z,16.71
2023-08-17T00:08:23.713Z,16.70
2023-08-17T00:10:50.777Z,16.71
2023-08-17T00:13:17.181Z,16.70
2023-08-17T00:15:46.202Z,16.69
2023-08-17T00:18:13.173Z,16.65
2023-08-17T00:20:40.718Z,16.59
2023-08-17T00:23:07.192Z,16.58
2023-08-17T00:25:33.645Z,16.53
2023-08-17T00:28:00.077Z,16.49
2023-08-17T00:30:26.503Z,16.47
2023-08-17T00:32:53.039Z,16.43
2023-08-17T00:35:19.524Z,16.40
2023-08-17T00:37:46.001Z,16.35
2023-08-17T00:40:12.852Z,16.31
2023-08-17T00:42:39.258Z,16.29
2023-08-17T00:45:06.183Z,16.25
2023-08-17T00:47:32.932Z,16.25
2023-08-17T00:50:00.417Z,16.24
2023-08-17T00:52:27.131Z,16.25
2023-08-17T00:54:53.832Z,16.24
2023-08-17T00:57:20.985Z,16.25
2023-08-17T00:59:59.379Z,16.22
2023-08-17T01:02:30.105Z,16.23
2023-08-17T01:04:56.633Z,16.23
2023-08-17T01:07:23.237Z,16.21
2023-08-17T01:09:49.861Z,16.20
2023-08-17T01:12:16.770Z,16.20
2023-08-17T01:15:02.732Z,16.19
2023-08-17T01:17:48.914Z,16.22
2023-08-17T01:20:17.040Z,16.25
2023-08-17T01:22:46.718Z,16.23
2023-08-17T01:25:13.167Z,16.24
2023-08-17T01:27:42.242Z,16.25
2023-08-17T01:30:10.528Z,16.26
2023-08-17T01:32:48.611Z,16.25
2023-08-17T01:35:33.722Z,16.24
2023-08-17T01:38:06.728Z,16.25
2023-08-17T01:40:34.414Z,16.23
2023-08-17T01:43:03.131Z,16.23
2023-08-17T01:45:29.574Z,16.23
2023-08-17T01:47:57.063Z,16.20
2023-08-17T01:50:23.544Z,16.18
2023-08-17T01:52:52.188Z,16.18
2023-08-17T01:55:18.837Z,16.18
2023-08-17T01:57:45.230Z,16.17
2023-08-17T02:00:12.203Z,16.16
2023-08-17T02:02:38.881Z,16.17
2023-08-17T02:05:05.840Z,16.14
2023-08-17T02:07:32.261Z,16.10
2023-08-17T02:09:58.724Z,16.06
2023-08-17T02:12:25.191Z,16.00
2023-08-17T02:14:51.732Z,15.93
2023-08-17T02:17:19.924Z,15.86
2023-08-17T02:19:48.430Z,15.79
2023-08-17T02:22:15.439Z,15.74
2023-08-17T02:24:42.034Z,15.74
2023-08-17T02:27:10.517Z,15.75
2023-08-17T02:29:36.982Z,15.76
2023-08-17T02:32:03.561Z,15.77
2023-08-17T02:34:30.024Z,15.79
2023-08-17T02:36:56.519Z,15.80
2023-08-17T02:39:23.044Z,15.80
2023-08-17T02:41:50.523Z,15.81
2023-08-17T02:44:16.981Z,15.83
2023-08-17T02:46:43.456Z,15.84
2023-08-17T02:49:09.961Z,15.85
2023-08-17T02:51:36.371Z,15.84
2023-08-17T02:54:03.075Z,15.85
2023-08-17T02:56:29.557Z,15.86
2023-08-17T02:58:56.007Z,15.86
2023-08-17T03:01:22.479Z,15.84
2023-08-17T03:03:48.974Z,15.83
2023-08-17T03:06:15.360Z,15.84
2023-08-17T03:08:41.782Z,15.84
2023-08-17T03:11:10.659Z,15.84
2023-08-17T03:13:37.248Z,15.85
2023-08-17T03:16:03.803Z,15.85
2023-08-17T03:18:30.232Z,15.87
2023-08-17T03:20:56.678Z,15.87
2023-08-17T03:23:23.079Z,15.86
2023-08-17T03:25:55.388Z,15.86
2023-08-17T03:28:21.849Z,15.85
2023-08-17T03:30:48.340Z,15.85
2023-08-17T03:33:14.786Z,15.83
2023-08-17T03:35:41.222Z,15.85
2023-08-17T03:38:07.654Z,15.84
2023-08-17T03:40:34.032Z,15.84
2023-08-17T03:43:00.426Z,15.84
2023-08-17T03:45:26.900Z,15.80
2023-08-17T03:47:53.341Z,15.81
2023-08-17T03:50:19.878Z,15.81
2023-08-17T03:52:46.360Z,15.80
2023-08-17T03:55:12.746Z,15.80
2023-08-17T03:57:39.941Z,15.80
2023-08-17T04:00:07.998Z,15.80
2023-08-17T04:02:34.522Z,15.80
2023-08-17T04:05:01.041Z,15.78
2023-08-17T04:07:27.976Z,15.79
2023-08-17T04:09:54.789Z,15.80
2023-08-17T04:12:21.285Z,15.80
2023-08-17T04:14:47.808Z,15.80
2023-08-17T04:17:14.183Z,15.79
2023-08-17T04:19:40.755Z,15.77
2023-08-17T04:22:07.265Z,15.80
2023-08-17T04:24:33.647Z,15.79
2023-08-17T04:27:00.106Z,15.80
2023-08-17T04:29:26.688Z,15.80
2023-08-17T04:31:53.393Z,15.83
2023-08-17T04:34:19.810Z,15.82
2023-08-17T04:36:46.213Z,15.80
2023-08-17T04:39:12.779Z,15.80
2023-08-17T04:41:39.906Z,15.80
2023-08-17T04:44:06.575Z,15.81
2023-08-17T04:46:33.052Z,15.82
2023-08-17T04:48:59.483Z,15.84
2023-08-17T04:51:25.870Z,15.87
2023-08-17T04:53:52.922Z,15.87
2023-08-17T04:56:19.497Z,15.88
2023-08-17T04:58:45.891Z,15.89
2023-08-17T05:01:12.401Z,15.91
2023-08-17T05:03:39.033Z,15.93
2023-08-17T05:06:05.552Z,15.95
2023-08-17T05:08:31.918Z,15.98
2023-08-17T05:10:58.459Z,16.00
2023-08-17T05:13:24.994Z,16.01
2023-08-17T05:15:51.533Z,16.07
2023-08-17T05:18:18.028Z,16.12
2023-08-17T05:20:44.582Z,16.15
2023-08-17T05:23:10.995Z,16.20
2023-08-17T05:25:37.424Z,16.24
2023-08-17T05:28:04.095Z,16.28
2023-08-17T05:30:30.570Z,16.33
2023-08-17T05:32:57.037Z,16.43
2023-08-17T05:35:23.473Z,16.52
2023-08-17T05:37:50.752Z,16.58
2023-08-17T05:40:17.221Z,16.69
2023-08-17T05:42:43.654Z,16.82
2023-08-17T05:45:10.311Z,16.95
2023-08-17T05:47:36.789Z,17.03
2023-08-17T05:50:03.388Z,17.15
2023-08-17T05:52:29.798Z,17.22
2023-08-17T05:54:56.239Z,17.31
2023-08-17T05:57:23.433Z,17.45
2023-08-17T05:59:50.047Z,17.50
2023-08-17T06:02:16.548Z,17.54
2023-08-17T06:04:43.244Z,17.53
2023-08-17T06:07:09.774Z,17.55
2023-08-17T06:09:36.174Z,17.44
2023-08-17T06:12:02.677Z,17.34
2023-08-17T06:14:29.157Z,17.23
2023-08-17T06:16:55.946Z,17.13
2023-08-17T06:19:22.558Z,17.08
2023-08-17T06:21:49.013Z,17.09
2023-08-17T06:24:15.473Z,17.18
2023-08-17T06:26:42.596Z,17.33
2023-08-17T06:29:09.020Z,17.41
2023-08-17T06:31:35.497Z,17.46
2023-08-17T06:34:02.147Z,17.51
2023-08-17T06:36:32.620Z,17.50
2023-08-17T06:38:59.227Z,17.49
2023-08-17T06:41:26.044Z,17.46
2023-08-17T06:43:52.561Z,17.43
2023-08-17T06:46:19.135Z,17.47
2023-08-17T06:48:45.801Z,17.51
2023-08-17T06:51:12.207Z,17.62
2023-08-17T06:53:38.714Z,17.71
2023-08-17T06:56:05.341Z,17.76
2023-08-17T06:58:31.753Z,17.78
2023-08-17T07:00:58.154Z,17.80
2023-08-17T07:03:24.605Z,17.81
2023-08-17T07:05:51.104Z,17.82
2023-08-17T07:08:18.054Z,17.84
2023-08-17T07:10:44.633Z,17.86
2023-08-17T07:13:11.085Z,17.88
2023-08-17T07:15:37.530Z,17.88
2023-08-17T07:18:04.229Z,17.85
2023-08-17T07:20:30.701Z,17.92
2023-08-17T07:22:57.925Z,18.17
2023-08-17T07:25:24.354Z,18.46
2023-08-17T07:27:51.081Z,18.89
2023-08-17T07:30:17.574Z,19.27
2023-08-17T07:32:44.176Z,19.39
2023-08-17T07:35:13.406Z,19.69
2023-08-17T07:37:39.809Z,20.00
2023-08-17T07:40:07.047Z,20.25
2023-08-17T07:42:33.624Z,20.95
2023-08-17T07:45:00.274Z,20.88
2023-08-17T07:47:27.251Z,21.69
2023-08-17T07:49:54.055Z,22.40
2023-08-17T07:52:20.498Z,22.78
2023-08-17T07:54:46.988Z,22.62
2023-08-17T07:57:13.429Z,22.55
2023-08-17T07:59:39.886Z,23.05
2023-08-17T08:02:06.462Z,22.51
2023-08-17T08:04:32.933Z,22.28
2023-08-17T08:06:59.476Z,22.62
2023-08-17T08:09:25.998Z,23.09
2023-08-17T08:11:52.524Z,23.97
2023-08-17T08:14:19.027Z,24.58
2023-08-17T08:16:45.564Z,25.13
2023-08-17T08:19:12.054Z,25.45
2023-08-17T08:21:38.448Z,25.85
2023-08-17T08:24:08.125Z,25.46
2023-08-17T08:26:37.408Z,24.50
2023-08-17T08:29:04.036Z,23.69
2023-08-17T08:31:30.490Z,22.73
2023-08-17T08:33:56.975Z,21.91
2023-08-17T08:36:23.462Z,21.65
2023-08-17T08:38:49.980Z,21.85
2023-08-17T08:41:16.515Z,21.91
2023-08-17T08:43:43.259Z,21.96
2023-08-17T08:46:10.824Z,21.58
2023-08-17T08:48:40.497Z,21.18
2023-08-17T08:51:11.298Z,21.06
2023-08-17T08:53:46.410Z,21.08
2023-08-17T08:56:13.925Z,21.08
2023-08-17T08:58:41.611Z,20.86
2023-08-17T09:01:11.047Z,20.62
2023-08-17T09:03:38.012Z,20.56
2023-08-17T09:06:05.647Z,20.86
2023-08-17T09:08:32.188Z,21.69
2023-08-17T09:10:58.827Z,22.07
2023-08-17T09:13:25.404Z,22.18
2023-08-17T09:15:51.882Z,22.23
2023-08-17T09:18:18.989Z,22.21
2023-08-17T09:20:48.711Z,21.99
2023-08-17T09:23:18.290Z,21.58
2023-08-17T09:25:45.853Z,21.30
2023-08-17T09:28:15.618Z,21.25
2023-08-17T09:30:56.458Z,21.18
2023-08-17T09:33:24.563Z,21.22
2023-08-17T09:38:24.810Z,21.25
2023-08-17T09:40:51.383Z,21.20
2023-08-17T09:43:19.158Z,21.15
2023-08-17T09:45:50.991Z,21.27
2023-08-17T09:48:18.863Z,21.41
2023-08-17T09:50:46.894Z,21.60
2023-08-17T09:53:15.097Z,21.78
2023-08-17T09:55:43.588Z,21.89
2023-08-17T09:58:10.420Z,21.68
2023-08-17T10:00:39.208Z,21.45
2023-08-17T10:03:08.278Z,21.36
2023-08-17T10:05:41.026Z,21.22
2023-08-17T10:08:09.067Z,21.23
2023-08-17T10:10:36.896Z,21.24
2023-08-17T10:13:32.061Z,21.01
2023-08-17T10:16:06.880Z,20.87
2023-08-17T10:18:50.575Z,20.84
2023-08-17T10:21:29.960Z,20.77
2023-08-17T10:23:58.208Z,20.90
2023-08-17T10:26:28.481Z,20.87
2023-08-17T10:28:59.882Z,20.86
2023-08-17T10:31:27.597Z,21.02
2023-08-17T10:33:54.691Z,21.19
2023-08-17T10:36:22.030Z,21.22
2023-08-17T10:38:48.424Z,21.31
2023-08-17T10:41:18.784Z,21.25
2023-08-17T10:43:59.594Z,21.25
2023-08-17T10:46:37.598Z,21.23
2023-08-17T10:49:06.548Z,21.06
2023-08-17T10:51:33.989Z,20.91
2023-08-17T10:54:04.477Z,20.95
2023-08-17T10:56:31.415Z,21.00
2023-08-17T10:59:03.038Z,20.95
2023-08-17T11:01:34.118Z,20.80
2023-08-17T11:04:16.853Z,20.85
2023-08-17T11:06:46.446Z,20.99
2023-08-17T11:09:17.117Z,21.07
2023-08-17T11:11:43.561Z,21.25
2023-08-17T11:14:10.084Z,21.30
2023-08-17T11:16:36.617Z,21.42
2023-08-17T11:19:03.208Z,21.32
2023-08-17T11:21:29.679Z,21.38
2023-08-17T11:23:57.576Z,21.39
2023-08-17T11:26:24.723Z,21.29
2023-08-17T11:28:51.440Z,21.26
2023-08-17T11:31:17.908Z,21.30
2023-08-17T11:33:44.449Z,21.22
2023-08-17T11:36:11.187Z,21.14
2023-08-17T11:38:42.997Z,21.23
2023-08-17T11:41:10.215Z,21.22
2023-08-17T11:43:37.661Z,21.10
2023-08-17T11:46:04.945Z,21.10
2023-08-17T11:51:01.739Z,21.36
2023-08-17T11:53:34.656Z,21.42
2023-08-17T11:56:04.752Z,21.60
2023-08-17T11:58:44.747Z,21.58
2023-08-17T12:01:12.967Z,21.45
2023-08-17T12:03:41.105Z,21.29
2023-08-17T12:06:08.052Z,21.08
2023-08-17T12:08:35.402Z,20.95
2023-08-17T12:11:03.704Z,20.68
2023-08-17T12:13:36.807Z,20.52
2023-08-17T12:16:04.709Z,20.47
2023-08-17T12:18:35.128Z,20.42
2023-08-17T12:21:02.227Z,20.42
2023-08-17T12:23:29.356Z,20.35
2023-08-17T12:25:56.579Z,20.41
2023-08-17T12:28:24.611Z,20.50
2023-08-17T12:31:01.893Z,20.55
2023-08-17T12:33:28.848Z,20.67
2023-08-17T12:35:56.405Z,20.83
2023-08-17T12:38:25.448Z,20.88
2023-08-17T12:40:52.077Z,20.78
2023-08-17T12:43:18.556Z,20.57
2023-08-17T12:45:44.948Z,20.46
2023-08-17T12:48:11.672Z,20.43
2023-08-17T12:50:43.314Z,20.34
2023-08-17T12:53:10.573Z,20.31
2023-08-17T12:55:37.091Z,20.30
2023-08-17T12:58:03.644Z,20.34
2023-08-17T13:00:30.152Z,20.29
2023-08-17T13:02:56.613Z,20.24
2023-08-17T13:05:23.102Z,20.18
2023-08-17T13:07:49.509Z,20.25
2023-08-17T13:10:16.049Z,20.39
2023-08-17T13:12:42.446Z,20.57
2023-08-17T13:15:09.015Z,20.59
2023-08-17T13:17:35.522Z,20.53
2023-08-17T13:20:02.242Z,20.37
2023-08-17T13:22:29.071Z,20.30
2023-08-17T13:24:55.809Z,20.38
2023-08-17T13:27:22.247Z,20.47
2023-08-17T13:29:48.860Z,20.49
2023-08-17T13:32:15.348Z,20.40
2023-08-17T13:34:41.796Z,20.30
2023-08-17T13:37:08.255Z,20.18
2023-08-17T13:39:34.765Z,20.16
2023-08-17T13:42:01.200Z,20.25
2023-08-17T13:44:27.679Z,20.38
2023-08-17T13:46:54.145Z,20.50
2023-08-17T13:49:20.634Z,20.53
2023-08-17T13:51:47.072Z,20.56
2023-08-17T13:54:13.504Z,20.57
2023-08-17T13:56:39.933Z,20.68
2023-08-17T13:59:06.379Z,20.76
2023-08-17T14:01:32.934Z,20.94
2023-08-17T14:03:59.698Z,20.88
2023-08-17T14:06:26.186Z,20.88
2023-08-17T14:08:52.686Z,20.84
2023-08-17T14:11:19.062Z,20.87
2023-08-17T14:13:45.450Z,21.07
2023-08-17T14:16:11.892Z,21.21
2023-08-17T14:18:38.303Z,21.21
2023-08-17T14:21:04.687Z,21.24
2023-08-17T14:23:31.105Z,21.24
2023-08-17T14:25:57.541Z,21.14
2023-08-17T14:28:23.998Z,21.07
2023-08-17T14:30:53.214Z,21.02
2023-08-17T14:33:20.123Z,20.96
2023-08-17T14:35:46.665Z,20.91
2023-08-17T14:38:14.556Z,20.92
2023-08-17T14:40:45.380Z,21.00
2023-08-17T14:43:15.649Z,21.14
2023-08-17T14:45:43.142Z,21.31
2023-08-17T14:48:09.832Z,21.36
2023-08-17T14:50:37.209Z,21.27
2023-08-17T14:53:07.368Z,21.18
2023-08-17T14:55:34.846Z,21.16
2023-08-17T14:58:04.125Z,21.26
2023-08-17T15:00:33.970Z,21.42
2023-08-17T15:03:01.582Z,21.46
2023-08-17T15:05:29.143Z,21.43
2023-08-17T15:07:55.960Z,21.37
2023-08-17T15:10:22.495Z,21.15
2023-08-17T15:12:49.888Z,21.05
2023-08-17T15:15:20.704Z,21.00
2023-08-17T15:17:47.801Z,21.02
2023-08-17T15:20:14.486Z,21.09
2023-08-17T15:22:40.866Z,21.01
2023-08-17T15:25:07.505Z,21.03
2023-08-17T15:27:34.141Z,21.10
2023-08-17T15:30:00.696Z,21.11
2023-08-17T15:32:27.330Z,21.02
2023-08-17T15:34:56.393Z,21.04
2023-08-17T15:37:23.530Z,21.11
2023-08-17T15:39:51.033Z,21.17
2023-08-17T15:42:17.443Z,21.07
2023-08-17T15:44:44.183Z,20.95
2023-08-17T15:47:10.559Z,20.86
2023-08-17T15:49:36.972Z,20.85
2023-08-17T15:52:05.870Z,20.78
2023-08-17T15:54:36.950Z,20.72
2023-08-17T15:57:05.755Z,20.60
2023-08-17T15:59:32.580Z,20.42
2023-08-17T16:01:59.145Z,20.22
2023-08-17T16:04:25.638Z,20.07
2023-08-17T16:06:52.182Z,19.93
2023-08-17T16:09:18.617Z,19.78
2023-08-17T16:11:45.038Z,19.69
2023-08-17T16:14:11.510Z,19.61
2023-08-17T16:16:37.996Z,19.58
2023-08-17T16:19:05.056Z,19.54
2023-08-17T16:21:31.966Z,19.53
2023-08-17T16:23:58.524Z,19.48
2023-08-17T16:26:24.961Z,19.47
2023-08-17T16:28:51.733Z,19.46
2023-08-17T16:31:18.285Z,19.47
2023-08-17T16:33:44.830Z,19.43
2023-08-17T16:36:11.508Z,19.40
2023-08-17T16:38:38.064Z,19.36
2023-08-17T16:41:04.605Z,19.34
2023-08-17T16:43:31.053Z,19.28
2023-08-17T16:45:57.611Z,19.26
2023-08-17T16:48:25.316Z,19.25
2023-08-17T16:50:52.327Z,19.23
2023-08-17T16:53:18.851Z,19.22
2023-08-17T16:55:53.816Z,19.18
2023-08-17T16:58:21.385Z,19.12
2023-08-17T17:00:47.851Z,19.08
2023-08-17T17:03:14.313Z,19.08
2023-08-17T17:05:40.758Z,19.07
2023-08-17T17:08:07.333Z,19.04
2023-08-17T17:10:33.956Z,19.04
2023-08-17T17:13:00.465Z,19.00
2023-08-17T17:15:27.097Z,18.97
2023-08-17T17:17:53.668Z,18.95
2023-08-17T17:20:20.151Z,18.94
2023-08-17T17:22:46.551Z,18.91
2023-08-17T17:25:13.035Z,18.88
2023-08-17T17:27:40.765Z,18.86
2023-08-17T17:30:07.901Z,18.84
2023-08-17T17:32:34.453Z,18.81
2023-08-17T17:35:00.887Z,18.84
2023-08-17T17:37:27.493Z,18.81
2023-08-17T17:39:54.188Z,18.80
2023-08-17T17:42:20.760Z,18.80
2023-08-17T17:44:47.190Z,18.78
2023-08-17T17:47:13.576Z,18.77
2023-08-17T17:49:40.030Z,18.78
2023-08-17T17:52:06.605Z,18.79
2023-08-17T17:54:33.024Z,18.77
2023-08-17T17:56:59.496Z,18.74
2023-08-17T17:59:26.122Z,18.71
2023-08-17T18:01:52.532Z,18.71
2023-08-17T18:04:19.037Z,18.68
2023-08-17T18:06:45.485Z,18.67
2023-08-17T18:09:11.860Z,18.65
2023-08-17T18:11:38.299Z,18.63
2023-08-17T18:14:07.619Z,18.61
2023-08-17T18:16:34.127Z,18.60
2023-08-17T18:19:00.593Z,18.57
2023-08-17T18:21:31.035Z,18.55
2023-08-17T18:24:00.984Z,18.54
2023-08-17T18:26:28.149Z,18.53
2023-08-17T18:28:56.489Z,18.53
2023-08-17T18:31:23.144Z,18.52
2023-08-17T18:33:49.734Z,18.52
2023-08-17T18:36:16.738Z,18.52
2023-08-17T18:38:43.490Z,18.51
2023-08-17T18:41:10.767Z,18.50
2023-08-17T18:43:37.679Z,18.50
2023-08-17T18:46:05.003Z,18.47
2023-08-17T18:48:32.200Z,18.48
2023-08-17T18:50:59.086Z,18.46
2023-08-17T18:53:25.641Z,18.43
2023-08-17T18:55:52.185Z,18.46
2023-08-17T18:58:19.485Z,18.47
2023-08-17T19:00:46.300Z,18.48
2023-08-17T19:03:13.035Z,18.46
2023-08-17T19:05:40.463Z,18.44
2023-08-17T19:08:07.468Z,18.44
2023-08-17T19:10:34.186Z,18.44
2023-08-17T19:13:00.833Z,18.43
2023-08-17T19:15:27.653Z,18.42
2023-08-17T19:17:54.114Z,18.36
2023-08-17T19:20:20.743Z,18.36
2023-08-17T19:22:47.408Z,18.36
2023-08-17T19:25:14.087Z,18.35
2023-08-17T19:27:41.336Z,18.35
2023-08-17T19:30:11.375Z,18.34
2023-08-17T19:32:41.421Z,18.33
2023-08-17T19:35:08.416Z,18.34
2023-08-17T19:37:35.785Z,18.33
2023-08-17T19:40:04.192Z,18.32
2023-08-17T19:42:31.297Z,18.32
2023-08-17T19:44:57.775Z,18.32
2023-08-17T19:47:24.401Z,18.30
2023-08-17T19:49:50.967Z,18.29
2023-08-17T19:52:17.760Z,18.29
2023-08-17T19:54:48.288Z,18.27
2023-08-17T19:57:14.936Z,18.28
2023-08-17T19:59:41.323Z,18.28
2023-08-17T20:02:07.891Z,18.28
2023-08-17T20:04:34.493Z,18.27
2023-08-17T20:07:01.019Z,18.24
2023-08-17T20:09:27.572Z,18.26
2023-08-17T20:11:54.165Z,18.23
2023-08-17T20:14:23.129Z,18.27
2023-08-17T20:16:50.055Z,18.27
2023-08-17T20:19:16.758Z,18.27
2023-08-17T20:21:43.366Z,18.31
2023-08-17T20:24:10.746Z,18.30
2023-08-17T20:26:38.853Z,18.31
2023-08-17T20:29:05.384Z,18.33
2023-08-17T20:31:31.952Z,18.33
2023-08-17T20:33:58.836Z,18.33
2023-08-17T20:36:25.549Z,18.35
2023-08-17T20:38:53.070Z,18.34
2023-08-17T20:41:21.015Z,18.34
2023-08-17T20:43:47.881Z,18.34
2023-08-17T20:46:14.769Z,18.34
2023-08-17T20:48:41.373Z,18.32
2023-08-17T20:51:08.706Z,18.33
2023-08-17T20:53:36.065Z,18.32
2023-08-17T20:56:02.501Z,18.32
2023-08-17T20:58:29.103Z,18.33
2023-08-17T21:00:55.670Z,18.34
2023-08-17T21:03:22.267Z,18.35
2023-08-17T21:05:49.170Z,18.37
2023-08-17T21:08:15.861Z,18.35
2023-08-17T21:10:43.355Z,18.33
2023-08-17T21:13:09.857Z,18.31
2023-08-17T21:15:36.290Z,18.31
2023-08-17T21:18:03.158Z,18.30
2023-08-17T21:20:31.361Z,18.30
2023-08-17T21:22:57.884Z,18.28
2023-08-17T21:25:24.382Z,18.28
2023-08-17T21:27:50.788Z,18.27
2023-08-17T21:30:17.320Z,18.26
2023-08-17T21:32:43.848Z,18.27
2023-08-17T21:35:12.773Z,18.27
2023-08-17T21:37:41.384Z,18.23
2023-08-17T21:40:08.410Z,18.19
2023-08-17T21:42:34.845Z,18.17
2023-08-17T21:45:01.235Z,18.16
2023-08-17T21:47:27.992Z,18.13
2023-08-17T21:49:54.617Z,18.11
2023-08-17T21:52:21.327Z,18.08
2023-08-17T21:54:51.116Z,18.06
2023-08-17T21:57:18.752Z,18.03
2023-08-17T21:59:45.332Z,18.02
2023-08-17T22:02:11.816Z,17.98
2023-08-17T22:04:38.234Z,17.96
2023-08-17T22:07:04.945Z,17.94
2023-08-17T22:09:34.247Z,17.92
2023-08-17T22:12:00.832Z,17.88
2023-08-17T22:14:29.568Z,17.86
2023-08-17T22:16:57.244Z,17.86
2023-08-17T22:19:24.257Z,17.82
2023-08-17T22:21:50.718Z,17.82
2023-08-17T22:24:17.135Z,17.79
2023-08-17T22:26:43.651Z,17.76
2023-08-17T22:29:10.142Z,17.76
2023-08-17T22:31:36.723Z,17.75
2023-08-17T22:34:03.208Z,17.74
2023-08-17T22:36:29.772Z,17.73
2023-08-17T22:38:56.214Z,17.72
2023-08-17T22:41:22.681Z,17.69
2023-08-17T22:43:49.464Z,17.64
2023-08-17T22:46:15.897Z,17.62
2023-08-17T22:48:43.011Z,17.62
2023-08-17T22:51:10.411Z,17.62
2023-08-17T22:53:37.338Z,17.60
2023-08-17T22:56:03.981Z,17.60
2023-08-17T22:58:30.445Z,17.59
2023-08-17T23:00:57.442Z,17.57
2023-08-17T23:03:23.966Z,17.56
2023-08-17T23:05:50.485Z,17.55
2023-08-17T23:08:16.956Z,17.54
2023-08-17T23:10:43.354Z,17.53
2023-08-17T23:13:10.143Z,17.51
2023-08-17T23:15:36.603Z,17.50
2023-08-17T23:18:03.165Z,17.48
2023-08-17T23:20:29.743Z,17.47
2023-08-17T23:22:56.271Z,17.46
2023-08-17T23:25:22.735Z,17.44
2023-08-17T23:27:49.183Z,17.45
2023-08-17T23:30:15.695Z,17.44
2023-08-17T23:32:42.640Z,17.43
2023-08-17T23:35:09.630Z,17.40
2023-08-17T23:37:35.999Z,17.40
2023-08-17T23:40:02.643Z,17.40
2023-08-17T23:42:29.080Z,17.37
2023-08-17T23:44:55.556Z,17.35
2023-08-17T23:47:22.021Z,17.34
2023-08-17T23:49:48.430Z,17.33
2023-08-17T23:52:14.857Z,17.33
2023-08-17T23:54:41.327Z,17.30
2023-08-17T23:57:08.486Z,17.28
2023-08-17T23:59:35.383Z,17.26
